Terminal Aerodrome Forecast
Issued by NWS

Home | Current Version | Previous Version | Text Only | Print | Product List | Glossary On
Versions: 1 2 3 4 5 6 7 8 9 10 11 12
902
FTUS45 KVEF 181728
TAFDAG
TAF
KDAG 181728Z 1818/1918 24006KT P6SM BKN250
     FM182300 24014KT P6SM BKN150
     FM190300 24014G22KT P6SM -SHRA SCT040 OVC080
     FM190600 24010KT P6SM -SHRA SCT040 OVC080=

USA.gov is the U.S. government's official web portal to all federal, state and local government web resources and services.